createdAt,value
2023-02-06T00:03:20.535Z,7.40
2023-02-06T00:08:22.991Z,7.40
2023-02-06T00:13:25.018Z,7.30
2023-02-06T00:18:27.291Z,7.40
2023-02-06T00:23:29.247Z,7.40
2023-02-06T00:28:31.402Z,7.40
2023-02-06T00:33:33.638Z,7.30
2023-02-06T00:38:38.530Z,7.40
2023-02-06T00:43:42.031Z,7.30
2023-02-06T00:48:44.135Z,7.30
2023-02-06T00:53:46.608Z,7.30
2023-02-06T00:58:48.876Z,7.40
2023-02-06T01:03:51.101Z,7.30
2023-02-06T01:08:53.360Z,7.20
2023-02-06T01:13:55.630Z,6.90
2023-02-06T01:18:57.828Z,6.80
2023-02-06T01:23:59.880Z,6.80
2023-02-06T01:29:02.918Z,6.80
2023-02-06T01:34:05.938Z,6.80
2023-02-06T01:39:08.371Z,6.90
2023-02-06T01:44:19.857Z,7.00
2023-02-06T01:49:34.534Z,7.00
2023-02-06T01:54:36.875Z,6.90
2023-02-06T01:59:44.201Z,7.00
2023-02-06T02:04:46.927Z,7.00
2023-02-06T02:09:49.282Z,7.00
2023-02-06T02:14:54.496Z,7.10
2023-02-06T02:20:24.023Z,7.30
2023-02-06T02:25:57.041Z,7.10
2023-02-06T02:31:46.863Z,7.10
2023-02-06T02:37:07.360Z,7.20
2023-02-06T02:42:28.555Z,7.20
2023-02-06T02:47:43.663Z,7.10
2023-02-06T02:52:46.701Z,7.00
2023-02-06T02:57:56.292Z,7.00
2023-02-06T03:02:59.340Z,7.10
2023-02-06T03:08:34.468Z,7.10
2023-02-06T03:13:48.843Z,7.20
2023-02-06T03:19:11.034Z,7.00
2023-02-06T03:24:31.968Z,6.70
2023-02-06T03:29:37.423Z,6.80
2023-02-06T03:35:08.445Z,6.90
2023-02-06T03:40:11.589Z,6.90
2023-02-06T03:45:26.470Z,6.70
2023-02-06T03:50:29.150Z,6.90
2023-02-06T03:55:31.476Z,6.90
2023-02-06T04:00:35.794Z,7.00
2023-02-06T04:05:39.271Z,7.10
2023-02-06T04:10:41.291Z,7.00
2023-02-06T04:15:43.501Z,7.00
2023-02-06T04:20:45.785Z,7.10
2023-02-06T04:25:48.338Z,7.00
2023-02-06T04:30:50.567Z,7.00
2023-02-06T04:35:52.667Z,7.00
2023-02-06T04:40:54.651Z,7.10
2023-02-06T04:45:56.693Z,6.90
2023-02-06T04:50:58.864Z,6.70
2023-02-06T04:56:07.327Z,6.80
2023-02-06T05:01:09.484Z,6.90
2023-02-06T05:06:11.919Z,6.90
2023-02-06T05:11:13.914Z,6.90
2023-02-06T05:16:17.691Z,6.90
2023-02-06T05:21:20.010Z,7.10
2023-02-06T05:26:22.109Z,6.90
2023-02-06T05:31:24.377Z,7.10
2023-02-06T05:36:26.514Z,7.20
2023-02-06T05:41:28.518Z,7.10
2023-02-06T05:46:30.776Z,6.90
2023-02-06T05:51:32.803Z,6.90
2023-02-06T05:56:34.827Z,6.70
2023-02-06T06:01:36.978Z,6.90
2023-02-06T06:06:39.042Z,6.70
2023-02-06T06:11:41.076Z,6.70
2023-02-06T06:16:43.230Z,6.80
2023-02-06T06:21:45.482Z,6.90
2023-02-06T06:26:47.959Z,6.80
2023-02-06T06:31:50.328Z,6.80
2023-02-06T06:36:52.461Z,6.60
2023-02-06T06:41:54.607Z,6.60
2023-02-06T06:46:56.746Z,6.60
2023-02-06T06:51:58.968Z,6.50
2023-02-06T06:57:00.998Z,6.60
2023-02-06T07:02:03.218Z,6.60
2023-02-06T07:07:05.374Z,6.60
2023-02-06T07:12:07.702Z,6.50
2023-02-06T07:17:09.735Z,6.40
2023-02-06T07:22:11.798Z,6.40
2023-02-06T07:27:14.042Z,6.50
2023-02-06T07:32:16.664Z,6.70
2023-02-06T07:37:18.943Z,7.00
2023-02-06T07:42:20.954Z,6.80
2023-02-06T07:47:30.079Z,6.70
2023-02-06T07:52:32.240Z,7.00
2023-02-06T07:57:34.298Z,7.50
2023-02-06T08:02:36.317Z,8.30
2023-02-06T08:07:38.363Z,9.10
2023-02-06T08:12:40.454Z,9.10
2023-02-06T08:17:42.890Z,9.20
2023-02-06T08:22:44.982Z,9.00
2023-02-06T08:27:47.533Z,9.10
2023-02-06T08:32:50.133Z,8.90
2023-02-06T08:37:52.238Z,8.50
2023-02-06T08:42:56.504Z,8.10
2023-02-06T08:47:58.860Z,9.00
2023-02-06T08:53:00.892Z,9.50
2023-02-06T08:58:04.027Z,8.80
2023-02-06T09:03:06.222Z,8.60
2023-02-06T09:08:08.951Z,8.90
2023-02-06T09:13:11.217Z,9.20
2023-02-06T09:18:13.209Z,9.30
2023-02-06T09:23:19.184Z,9.70
2023-02-06T09:28:21.420Z,10.40
2023-02-06T09:33:24.176Z,10.60
2023-02-06T09:38:26.168Z,10.70
2023-02-06T09:43:32.175Z,10.00
2023-02-06T09:48:39.512Z,9.40
2023-02-06T09:54:12.881Z,9.40
2023-02-06T09:59:32.908Z,9.30
2023-02-06T10:05:36.798Z,9.50
2023-02-06T10:10:53.455Z,9.40
2023-02-06T10:16:07.345Z,8.30
2023-02-06T10:21:31.563Z,8.60
2023-02-06T10:26:38.928Z,9.10
2023-02-06T10:32:01.880Z,9.80
2023-02-06T10:37:29.754Z,10.20
2023-02-06T10:42:52.790Z,9.90
2023-02-06T10:48:09.599Z,9.90
2023-02-06T10:53:35.468Z,9.90
2023-02-06T10:58:46.244Z,10.20
2023-02-06T11:04:04.017Z,9.80
2023-02-06T11:09:06.386Z,10.00
2023-02-06T11:14:35.203Z,10.00
2023-02-06T11:19:46.767Z,9.60
2023-02-06T11:25:01.580Z,10.00
2023-02-06T11:30:27.485Z,9.90
2023-02-06T11:35:54.198Z,9.30
2023-02-06T11:41:01.348Z,9.70
2023-02-06T11:46:42.238Z,9.60
2023-02-06T11:52:03.730Z,9.00
2023-02-06T11:57:21.105Z,8.70
2023-02-06T12:02:31.628Z,8.40
2023-02-06T12:08:10.704Z,8.40
2023-02-06T12:13:30.946Z,8.10
2023-02-06T12:18:42.360Z,8.20
2023-02-06T12:23:52.955Z,8.20
2023-02-06T12:29:04.823Z,8.10
2023-02-06T12:34:15.556Z,8.20
2023-02-06T12:39:22.990Z,8.00
2023-02-06T12:44:57.677Z,8.00
2023-02-06T12:50:44.354Z,8.20
2023-02-06T12:56:00.873Z,8.00
2023-02-06T13:01:33.003Z,8.00
2023-02-06T13:07:05.069Z,8.00
2023-02-06T13:12:19.866Z,8.00
2023-02-06T13:17:38.865Z,7.80
2023-02-06T13:22:51.101Z,8.00
2023-02-06T13:27:55.711Z,8.20
2023-02-06T13:33:20.911Z,8.10
2023-02-06T13:38:22.868Z,8.10
2023-02-06T13:43:30.888Z,8.00
2023-02-06T13:49:15.219Z,8.20
2023-02-06T13:54:38.512Z,8.10
2023-02-06T14:00:00.795Z,8.30
2023-02-06T14:05:06.936Z,8.30
2023-02-06T14:11:00.946Z,8.50
2023-02-06T14:16:45.002Z,8.30
2023-02-06T14:22:36.750Z,8.30
2023-02-06T14:28:33.096Z,8.40
2023-02-06T14:34:00.280Z,8.20
2023-02-06T14:39:40.822Z,8.20
2023-02-06T14:44:50.692Z,8.00
2023-02-06T14:49:56.714Z,8.10
2023-02-06T14:54:59.081Z,8.10
2023-02-06T15:00:17.642Z,8.20
2023-02-06T15:05:26.551Z,8.00
2023-02-06T15:10:36.718Z,7.90
2023-02-06T15:15:39.100Z,8.00
2023-02-06T15:20:45.334Z,7.80
2023-02-06T15:26:05.672Z,7.80
2023-02-06T15:31:21.570Z,7.90
2023-02-06T15:36:38.378Z,8.00
2023-02-06T15:41:44.546Z,7.80
2023-02-06T15:46:49.296Z,8.00
2023-02-06T15:51:55.146Z,7.90
2023-02-06T15:57:17.322Z,7.80
2023-02-06T16:02:31.043Z,7.80
2023-02-06T16:07:36.178Z,7.80
2023-02-06T16:12:42.593Z,7.80
2023-02-06T16:17:44.634Z,7.70
2023-02-06T16:22:47.178Z,7.80
2023-02-06T16:27:51.435Z,7.80
2023-02-06T16:32:55.523Z,7.90
2023-02-06T16:37:57.737Z,7.80
2023-02-06T16:43:01.945Z,7.90
2023-02-06T16:48:10.072Z,7.80
